Time;durP1;ratioP1;P1;durP2;ratioP2;P2;SDS_P1;SDS_P2;PMS_P1;PMS_P2;Temp;Humidity;BMP_temperature;BMP_pressure;BME280_temperature;BME280_humidity;BME280_pressure;Samples;Min_cycle;Max_cycle;Signal;HPM_P1;HPM_P2
2022/10/21 00:00:35;;;;;;;6.42;3.35;;;;;;;-0.26;100.00;100300.73;1585005;90;20975;-76
2022/10/21 00:03:01;;;;;;;7.00;3.90;;;;;;;-0.28;100.00;100300.66;1585510;90;21019;-76
2022/10/21 00:05:28;;;;;;;7.33;3.67;;;;;;;-0.32;100.00;100299.46;1585652;90;21440;-76
2022/10/21 00:07:57;;;;;;;8.18;3.65;;;;;;;-0.35;100.00;100295.34;1585734;90;21024;-76
2022/10/21 00:10:23;;;;;;;7.45;4.00;;;;;;;-0.32;100.00;100284.09;1584031;90;21475;-76
2022/10/21 00:12:50;;;;;;;18.92;4.00;;;;;;;-0.27;100.00;100290.98;1583877;90;20975;-76
2022/10/21 00:15:18;;;;;;;9.83;3.10;;;;;;;-0.28;100.00;100285.30;1585415;90;20960;-76
2022/10/21 00:17:45;;;;;;;5.65;3.10;;;;;;;-0.32;100.00;100294.06;1568315;87;21116;-77
2022/10/21 00:20:12;;;;;;;8.63;3.40;;;;;;;-0.34;100.00;100291.07;1625602;87;21132;-77
2022/10/21 00:22:39;;;;;;;7.12;3.08;;;;;;;-0.32;100.00;100286.80;1608853;88;21591;-77
2022/10/21 00:25:06;;;;;;;8.30;3.40;;;;;;;-0.34;100.00;100286.20;1605408;89;20899;-77
2022/10/21 00:27:34;;;;;;;9.33;3.40;;;;;;;-0.36;100.00;100291.00;1605845;87;21502;-76
2022/10/21 00:30:00;;;;;;;6.08;2.77;;;;;;;-0.37;100.00;100296.91;1605904;89;20983;-76
2022/10/21 00:32:27;;;;;;;7.10;3.20;;;;;;;-0.41;100.00;100292.20;1605898;89;20927;-76
2022/10/21 00:34:53;;;;;;;7.12;3.10;;;;;;;-0.44;100.00;100294.82;1583280;89;21131;-77
2022/10/21 00:37:20;;;;;;;13.43;3.27;;;;;;;-0.43;100.00;100299.69;1579422;91;20987;-77
2022/10/21 00:39:47;;;;;;;5.30;3.27;;;;;;;-0.44;100.00;100301.56;1579371;91;21487;-77
2022/10/21 00:42:17;;;;;;;9.03;3.45;;;;;;;-0.38;100.00;100301.19;1579379;90;21005;-78
2022/10/21 00:44:45;;;;;;;6.15;2.85;;;;;;;-0.32;100.00;100300.28;1579408;89;21491;-76
2022/10/21 00:47:17;;;;;;;6.47;3.12;;;;;;;-0.33;100.00;100304.03;1556161;91;21171;-77
2022/10/21 00:49:48;;;;;;;5.87;3.12;;;;;;;-0.32;100.00;100301.64;1579844;90;20964;-77
2022/10/21 00:52:19;;;;;;;6.17;3.30;;;;;;;-0.31;100.00;100297.89;1579981;90;21033;-77
2022/10/21 00:54:46;;;;;;;7.25;2.92;;;;;;;-0.32;100.00;100300.28;1549303;91;21495;-77
2022/10/21 00:57:13;;;;;;;5.37;2.95;;;;;;;-0.34;100.00;100297.81;1564503;91;21043;-77
2022/10/21 00:59:43;;;;;;;5.65;3.00;;;;;;;-0.37;100.00;100305.02;1576600;91;21135;-78
2022/10/21 01:02:12;;;;;;;6.65;2.92;;;;;;;-0.40;100.00;100298.72;1574218;91;28487;-77
2022/10/21 01:04:40;;;;;;;7.30;2.92;;;;;;;-0.43;100.00;100297.81;1563560;91;21063;-77
2022/10/21 01:07:06;;;;;;;8.93;3.75;;;;;;;-0.46;100.00;100300.14;1558336;91;20913;-77
2022/10/21 01:09:33;;;;;;;6.37;3.67;;;;;;;-0.49;100.00;100296.02;1545823;92;21616;-77
2022/10/21 01:12:01;;;;;;;7.00;3.90;;;;;;;-0.50;100.00;100291.67;1558678;91;21293;-77
2022/10/21 01:14:49;;;;;;;10.82;3.67;;;;;;;-0.52;100.00;100288.91;1555707;92;21608;-78
2022/10/21 01:17:34;;;;;;;8.45;3.40;;;;;;;-0.54;100.00;100290.48;1556467;91;20989;-76
2022/10/21 01:20:36;;;;;;;8.15;3.65;;;;;;;-0.60;100.00;100298.14;1558737;91;21028;-77
2022/10/21 01:24:02;;;;;;;17.67;4.55;;;;;;;-0.67;100.00;100292.00;1570315;91;21037;-77
2022/10/21 01:26:59;;;;;;;7.47;3.72;;;;;;;-0.75;100.00;100303.91;1565964;91;21399;-78
2022/10/21 01:29:42;;;;;;;9.03;4.03;;;;;;;-0.83;100.00;100300.67;1566896;91;20940;-78
2022/10/21 01:32:24;;;;;;;10.38;4.80;;;;;;;-0.86;100.00;100303.29;1578537;90;21562;-78
2022/10/21 01:35:13;;;;;;;9.85;4.70;;;;;;;-0.89;100.00;100309.64;1550675;91;20980;-79
2022/10/21 01:38:11;;;;;;;6.87;3.85;;;;;;;-0.91;100.00;100311.73;1567652;91;21063;-79
2022/10/21 01:41:09;;;;;;;7.80;3.50;;;;;;;-0.92;100.00;100314.13;1573773;91;21507;-79
2022/10/21 01:43:46;;;;;;;7.53;3.17;;;;;;;-0.89;100.00;100318.55;1573708;89;21097;-79
2022/10/21 01:46:27;;;;;;;7.03;3.20;;;;;;;-0.85;100.00;100321.11;1563620;91;21036;-77
2022/10/21 01:48:59;;;;;;;6.67;2.92;;;;;;;-0.81;100.00;100314.75;1549055;91;20937;-77
2022/10/21 01:51:26;;;;;;;6.17;3.20;;;;;;;-0.81;100.00;100310.19;1560161;90;20908;-77
2022/10/21 01:53:58;;;;;;;7.25;3.20;;;;;;;-0.83;100.00;100306.89;1573390;90;21177;-77
2022/10/21 01:56:24;;;;;;;4.55;2.37;;;;;;;-0.83;100.00;100309.58;1542698;91;21040;-77
2022/10/21 01:58:51;;;;;;;5.65;3.10;;;;;;;-0.80;100.00;100317.75;1564896;91;20988;-77
2022/10/21 02:01:17;;;;;;;5.28;3.08;;;;;;;-0.77;100.00;100321.35;1544582;92;20988;-77
2022/10/21 02:03:46;;;;;;;8.28;2.92;;;;;;;-0.79;100.00;100320.75;1544551;93;20983;-77
2022/10/21 02:06:13;;;;;;;5.60;2.72;;;;;;;-0.81;100.00;100316.92;1544587;93;21269;-77
2022/10/21 02:08:41;;;;;;;7.35;3.60;;;;;;;-0.83;100.00;100320.37;1534434;93;21024;-76
2022/10/21 02:11:09;;;;;;;6.90;3.10;;;;;;;-0.85;100.00;100314.38;1544567;93;20977;-76
2022/10/21 02:13:50;;;;;;;5.20;2.65;;;;;;;-0.90;100.00;100321.48;1544471;92;20905;-76
2022/10/21 02:16:18;;;;;;;5.05;2.92;;;;;;;-0.98;100.00;100318.54;1544599;92;21512;-76
2022/10/21 02:18:45;;;;;;;5.67;2.70;;;;;;;-1.06;100.00;100310.73;1544439;93;21199;-77
2022/10/21 02:21:18;;;;;;;4.90;2.85;;;;;;;-1.11;100.00;100328.08;1544549;90;21567;-77
2022/10/21 02:23:52;;;;;;;7.85;3.62;;;;;;;-1.15;100.00;100330.92;1595952;88;21047;-77
2022/10/21 02:26:23;;;;;;;8.63;3.37;;;;;;;-1.22;100.00;100322.92;1609414;88;21042;-76
2022/10/21 02:28:50;;;;;;;5.80;3.55;;;;;;;-1.29;100.00;100328.05;1621887;88;20973;-76
2022/10/21 02:31:39;;;;;;;8.28;3.22;;;;;;;-1.36;100.00;100332.97;1621985;88;21125;-77
2022/10/21 02:34:44;;;;;;;6.42;3.52;;;;;;;-1.42;100.00;100329.80;1621835;88;21411;-78
2022/10/21 02:37:45;;;;;;;5.28;2.87;;;;;;;-1.49;100.00;100334.41;1621853;88;21010;-78
2022/10/21 02:40:29;;;;;;;7.65;3.12;;;;;;;-1.60;100.00;100329.72;1621875;88;21005;-78
2022/10/21 02:43:05;;;;;;;6.62;3.30;;;;;;;-1.64;100.00;100331.72;1621863;88;21016;-77
2022/10/21 02:45:32;;;;;;;8.38;3.47;;;;;;;-1.68;100.00;100329.45;1621886;86;21289;-77
2022/10/21 02:47:58;;;;;;;9.00;3.58;;;;;;;-1.72;100.00;100336.84;1621931;88;20996;-77
2022/10/21 02:50:25;;;;;;;5.70;3.30;;;;;;;-1.79;100.00;100333.38;1621888;88;20938;-77
2022/10/21 02:52:52;;;;;;;12.55;3.92;;;;;;;-1.86;100.00;100340.15;1612713;88;21560;-76
2022/10/21 02:55:18;;;;;;;9.43;3.42;;;;;;;-1.90;100.00;100342.97;1612665;89;21017;-77
2022/10/21 02:57:45;;;;;;;12.80;4.55;;;;;;;-1.98;100.00;100331.63;1612509;89;21117;-76
2022/10/21 03:00:13;;;;;;;11.57;4.55;;;;;;;-2.05;100.00;100336.52;1582910;89;21023;-76
2022/10/21 03:02:41;;;;;;;10.43;4.60;;;;;;;-2.05;100.00;100341.89;1576742;90;21032;-77
2022/10/21 03:05:09;;;;;;;8.28;4.33;;;;;;;-2.11;100.00;100342.75;1576605;90;21104;-77
2022/10/21 03:07:38;;;;;;;11.40;4.72;;;;;;;-2.15;100.00;100345.56;1581419;89;20924;-77
2022/10/21 03:10:06;;;;;;;13.90;5.10;;;;;;;-2.19;100.00;100356.95;1568874;88;21170;-77
2022/10/21 03:12:32;;;;;;;13.43;4.85;;;;;;;-2.18;100.00;100364.81;1553490;91;21009;-78
2022/10/21 03:14:59;;;;;;;13.80;5.33;;;;;;;-2.14;100.00;100366.56;1541443;93;21583;-77
2022/10/21 03:17:26;;;;;;;11.10;4.78;;;;;;;-2.12;100.00;100362.63;1541495;93;21033;-77
2022/10/21 03:19:54;;;;;;;13.45;4.00;;;;;;;-2.04;100.00;100366.94;1541573;93;21492;-77
2022/10/21 03:22:22;;;;;;;8.03;4.05;;;;;;;-1.98;100.00;100365.26;1554813;91;21210;-77
2022/10/21 03:24:49;;;;;;;8.23;3.85;;;;;;;-1.93;100.00;100360.06;1566368;88;21067;-77
2022/10/21 03:27:15;;;;;;;7.72;3.65;;;;;;;-1.89;100.00;100354.55;1570322;87;21021;-77
2022/10/21 03:29:42;;;;;;;10.50;4.30;;;;;;;-1.88;100.00;100355.69;1577650;89;21111;-78
2022/10/21 03:32:09;;;;;;;10.40;4.58;;;;;;;-1.84;100.00;100355.56;1570871;90;21002;-78
2022/10/21 03:34:37;;;;;;;10.88;4.45;;;;;;;-1.83;100.00;100359.08;1581270;90;20907;-78
2022/10/21 03:37:04;;;;;;;8.98;3.98;;;;;;;-1.88;100.00;100357.03;1575191;90;20989;-76
2022/10/21 03:39:30;;;;;;;7.60;3.70;;;;;;;-1.90;100.00;100348.87;1579132;90;21538;-79
2022/10/21 03:41:57;;;;;;;7.62;4.20;;;;;;;-1.91;100.00;100348.56;1586445;89;20896;-77
2022/10/21 03:44:24;;;;;;;6.87;3.77;;;;;;;-1.93;100.00;100347.95;1579068;89;21074;-77
2022/10/21 03:46:50;;;;;;;11.03;4.55;;;;;;;-1.95;100.00;100341.95;1591334;89;21173;-78
2022/10/21 03:49:18;;;;;;;10.82;4.22;;;;;;;-2.00;100.00;100340.73;1578967;88;20921;-78
2022/10/21 03:51:46;;;;;;;10.40;4.12;;;;;;;-2.03;100.00;100340.34;1581719;88;20976;-76
2022/10/21 03:54:12;;;;;;;8.58;3.80;;;;;;;-2.07;100.00;100341.28;1601157;89;21075;-79
2022/10/21 03:56:39;;;;;;;10.20;4.03;;;;;;;-2.11;100.00;100343.27;1601218;89;21030;-80
2022/10/21 03:59:06;;;;;;;9.00;4.33;;;;;;;-2.14;100.00;100347.21;1608050;87;21086;-73
2022/10/21 04:01:34;;;;;;;9.45;4.17;;;;;;;-2.14;100.00;100349.08;1631614;87;20932;-72
2022/10/21 04:04:00;;;;;;;14.78;4.08;;;;;;;-2.16;100.00;100348.46;1634004;87;21089;-70
2022/10/21 04:06:28;;;;;;;11.93;4.10;;;;;;;-2.14;100.00;100345.87;1633972;87;20943;-71
2022/10/21 04:08:55;;;;;;;10.70;4.62;;;;;;;-2.13;100.00;100351.55;1631897;87;20967;-71
2022/10/21 04:11:28;;;;;;;9.35;4.15;;;;;;;-2.15;100.00;100350.11;1581316;89;21566;-72
2022/10/21 04:13:59;;;;;;;18.90;6.00;;;;;;;-2.15;100.00;100351.46;1589950;89;21024;-72
2022/10/21 04:16:32;;;;;;;14.20;6.90;;;;;;;-2.14;100.00;100347.21;1609867;87;21522;-73
2022/10/21 04:19:03;;;;;;;22.90;6.55;;;;;;;-2.10;100.00;100338.20;1614222;87;21773;-77
2022/10/21 04:21:33;;;;;;;13.13;5.37;;;;;;;-2.08;100.00;100349.05;1572867;91;20995;-72
2022/10/21 04:24:01;;;;;;;13.65;5.60;;;;;;;-2.10;100.00;100342.23;1575641;91;21273;-80
2022/10/21 04:26:30;;;;;;;12.58;5.37;;;;;;;-2.13;100.00;100348.86;1616425;88;20990;-70
2022/10/21 04:29:03;;;;;;;11.48;5.35;;;;;;;-2.15;100.00;100350.94;1578731;90;20904;-72
2022/10/21 04:31:37;;;;;;;8.50;4.40;;;;;;;-2.17;100.00;100350.33;1559432;90;20975;-71
2022/10/21 04:34:05;;;;;;;9.58;4.42;;;;;;;-2.20;100.00;100354.79;1579569;90;21004;-67
2022/10/21 04:36:37;;;;;;;10.30;4.25;;;;;;;-2.21;100.00;100358.52;1579522;91;21131;-68
2022/10/21 04:39:11;;;;;;;9.33;4.22;;;;;;;-2.22;100.00;100357.38;1615668;88;20963;-74
2022/10/21 04:41:44;;;;;;;9.68;5.10;;;;;;;-2.18;100.00;100359.95;1588311;89;21024;-72
2022/10/21 04:44:17;;;;;;;6.92;4.37;;;;;;;-2.14;100.00;100357.97;1579636;89;20991;-75
2022/10/21 04:46:47;;;;;;;9.53;4.87;;;;;;;-2.11;100.00;100354.86;1606319;89;21494;-77
2022/10/21 04:49:23;;;;;;;12.15;4.67;;;;;;;-2.07;100.00;100348.02;1577774;89;21586;-71
2022/10/21 04:51:52;;;;;;;6.97;4.40;;;;;;;-2.06;100.00;100348.31;1606255;88;21551;-77
2022/10/21 04:54:24;;;;;;;11.12;4.50;;;;;;;-2.03;100.00;100349.75;1587020;89;21074;-74
2022/10/21 04:56:54;;;;;;;10.28;4.03;;;;;;;-1.98;100.00;100355.84;1603207;89;21012;-69
2022/10/21 04:59:23;;;;;;;9.20;3.87;;;;;;;-1.98;100.00;100362.56;1558883;90;21070;-72
2022/10/21 05:01:51;;;;;;;5.78;3.75;;;;;;;-2.00;100.00;100350.67;1604409;88;21281;-69
2022/10/21 05:04:18;;;;;;;13.62;5.03;;;;;;;-1.98;100.00;100347.25;1575614;89;20988;-68
2022/10/21 05:06:48;;;;;;;8.08;4.53;;;;;;;-1.93;100.00;100359.54;1599175;89;21117;-69
2022/10/21 05:09:18;;;;;;;10.15;4.92;;;;;;;-1.91;100.00;100357.98;1595187;90;20963;-68
2022/10/21 05:11:48;;;;;;;12.65;6.28;;;;;;;-1.91;100.00;100356.11;1595107;89;20923;-71
2022/10/21 05:14:18;;;;;;;15.85;5.08;;;;;;;-1.89;100.00;100358.59;1595287;89;21166;-69
2022/10/21 05:16:50;;;;;;;11.88;4.80;;;;;;;-1.82;100.00;100362.91;1597399;89;20951;-71
2022/10/21 05:19:26;;;;;;;10.93;5.90;;;;;;;-1.77;100.00;100357.70;1607390;89;20996;-70
2022/10/21 05:21:58;;;;;;;10.10;5.17;;;;;;;-1.71;100.00;100350.59;1588411;89;20996;-71
2022/10/21 05:24:26;;;;;;;9.50;4.70;;;;;;;-1.64;100.00;100351.39;1576988;89;21039;-78
2022/10/21 05:27:03;;;;;;;8.60;4.92;;;;;;;-1.55;100.00;100346.57;1577364;91;21294;-73
2022/10/21 05:29:33;;;;;;;8.63;4.78;;;;;;;-1.46;100.00;100352.83;1601607;88;20991;-80
2022/10/21 05:32:06;;;;;;;7.53;3.45;;;;;;;-1.38;100.00;100354.44;1606449;89;21039;-72
2022/10/21 05:34:36;;;;;;;10.38;4.00;;;;;;;-1.31;100.00;100357.08;1585671;89;26515;-73
2022/10/21 05:37:03;;;;;;;10.60;3.98;;;;;;;-1.22;100.00;100363.85;1606460;89;20936;-75
2022/10/21 05:39:35;;;;;;;9.83;4.20;;;;;;;-1.12;100.00;100355.55;1605939;89;21546;-74
2022/10/21 05:42:03;;;;;;;12.47;4.00;;;;;;;-1.02;100.00;100353.71;1600903;88;20979;-76
2022/10/21 05:44:35;;;;;;;7.92;4.12;;;;;;;-0.93;100.00;100351.05;1592976;89;21076;-74
2022/10/21 05:47:01;;;;;;;7.07;3.97;;;;;;;-0.84;100.00;100355.63;1582651;90;21027;-72
2022/10/21 05:49:31;;;;;;;8.20;3.40;;;;;;;-0.75;100.00;100357.00;1555370;92;20952;-72
2022/10/21 05:52:01;;;;;;;13.38;5.85;;;;;;;-0.58;100.00;100350.52;1554339;92;20989;-73
2022/10/21 05:54:31;;;;;;;15.72;7.65;;;;;;;-0.58;100.00;100350.52;1535838;92;21174;-73
2022/10/21 05:57:01;;;;;;;16.42;8.40;;;;;;;-0.43;100.00;100353.64;1557432;92;20948;-78
2022/10/21 05:59:30;;;;;;;20.68;8.10;;;;;;;-0.30;100.00;100354.84;1577436;89;20956;-81
2022/10/21 06:01:59;;;;;;;15.30;7.42;;;;;;;-0.17;100.00;100353.34;1552895;91;21107;-76
2022/10/21 06:04:28;;;;;;;14.45;6.97;;;;;;;-0.03;100.00;100352.66;1551537;90;21193;-78
2022/10/21 06:06:56;;;;;;;16.45;6.17;;;;;;;0.06;100.00;100357.20;1565110;91;21540;-74
2022/10/21 06:09:25;;;;;;;12.37;6.33;;;;;;;0.16;100.00;100357.48;1576242;90;21588;-83
2022/10/21 06:11:56;;;;;;;19.57;6.42;;;;;;;0.26;100.00;100367.22;1576363;91;21515;-74
2022/10/21 06:14:26;;;;;;;20.90;8.58;;;;;;;0.37;100.00;100364.27;1564385;90;21767;-81
2022/10/21 06:16:56;;;;;;;21.30;9.78;;;;;;;0.46;100.00;100362.89;1578702;91;21629;-75
2022/10/21 06:19:23;;;;;;;19.05;8.45;;;;;;;0.57;100.00;100364.28;1551498;92;20966;-76
2022/10/21 06:21:56;;;;;;;16.12;7.53;;;;;;;0.66;100.00;100365.58;1553235;90;21006;-75
2022/10/21 06:24:28;;;;;;;12.78;5.90;;;;;;;0.78;100.00;100368.31;1575623;90;20895;-73
2022/10/21 06:26:58;;;;;;;19.87;8.40;;;;;;;0.94;100.00;100372.22;1573248;91;20986;-75
2022/10/21 06:29:26;;;;;;;15.58;6.60;;;;;;;1.33;100.00;100364.77;1572230;90;21178;-70
2022/10/21 06:32:03;;;;;;;16.42;7.20;;;;;;;1.96;100.00;100373.45;1534819;92;21571;-71
2022/10/21 06:34:46;;;;;;;26.25;7.15;;;;;;;2.62;100.00;100377.44;1552586;90;21115;-74
2022/10/21 06:37:12;;;;;;;18.02;7.92;;;;;;;3.30;100.00;100370.97;1582956;89;22394;-78
2022/10/21 06:39:39;;;;;;;14.40;6.62;;;;;;;3.98;100.00;100373.00;1582855;90;21445;-75
2022/10/21 06:42:10;;;;;;;19.77;7.50;;;;;;;4.52;100.00;100373.06;1556793;90;20944;-77
2022/10/21 06:44:43;;;;;;;9.75;4.95;;;;;;;4.98;100.00;100376.49;1582560;89;20953;-73
2022/10/21 06:47:13;;;;;;;13.20;6.05;;;;;;;5.36;100.00;100375.14;1581097;89;21064;-74
2022/10/21 06:49:44;;;;;;;12.58;6.17;;;;;;;5.85;100.00;100371.08;1582364;89;20958;-75
2022/10/21 06:52:11;;;;;;;14.30;5.33;;;;;;;6.31;100.00;100374.05;1583204;88;21705;-81
2022/10/21 06:54:42;;;;;;;8.80;4.10;;;;;;;6.54;94.73;100374.09;1587490;89;21081;-79
2022/10/21 06:57:15;;;;;;;13.60;5.53;;;;;;;6.55;91.32;100371.64;1599171;89;21010;-79
2022/10/21 06:59:41;;;;;;;9.40;4.83;;;;;;;6.57;92.34;100377.09;1599376;89;21039;-78
2022/10/21 07:02:12;;;;;;;9.90;4.17;;;;;;;6.86;92.07;100380.70;1599046;89;21476;-78
2022/10/21 07:04:44;;;;;;;8.93;4.30;;;;;;;7.21;89.17;100382.08;1598960;89;20949;-80
2022/10/21 07:07:15;;;;;;;12.45;4.35;;;;;;;7.43;86.93;100378.25;1599750;89;21141;-79
2022/10/21 07:09:43;;;;;;;9.35;4.08;;;;;;;7.59;86.59;100383.94;1599231;89;21516;-78
2022/10/21 07:12:10;;;;;;;12.00;5.35;;;;;;;7.81;84.58;100378.98;1599309;89;21280;-73
2022/10/21 07:14:43;;;;;;;10.72;4.47;;;;;;;7.97;81.85;100387.14;1579692;89;20948;-72
2022/10/21 07:17:09;;;;;;;9.70;4.43;;;;;;;7.97;80.28;100392.61;1599448;89;21051;-74
2022/10/21 07:19:41;;;;;;;11.15;4.65;;;;;;;8.04;79.80;100393.95;1599279;89;21218;-74
2022/10/21 07:22:13;;;;;;;7.40;4.12;;;;;;;8.11;79.23;100396.36;1599320;89;21475;-72
2022/10/21 07:24:47;;;;;;;9.63;3.95;;;;;;;8.05;78.61;100394.22;1592411;89;20960;-72
2022/10/21 07:27:14;;;;;;;7.65;4.33;;;;;;;8.06;78.42;100403.25;1590628;89;21050;-72
2022/10/21 07:29:45;;;;;;;13.55;6.10;;;;;;;8.17;78.04;100394.70;1579418;89;20948;-74
2022/10/21 07:32:15;;;;;;;9.35;5.00;;;;;;;8.33;76.42;100405.63;1574166;91;21703;-72
2022/10/21 07:34:44;;;;;;;12.18;5.20;;;;;;;8.30;76.08;100401.49;1544485;93;21032;-74
2022/10/21 07:37:15;;;;;;;9.93;5.12;;;;;;;8.33;75.84;100405.07;1554390;91;20995;-76
2022/10/21 07:39:53;;;;;;;9.80;6.33;;;;;;;8.43;75.67;100406.39;1574092;91;21071;-74
2022/10/21 07:42:28;;;;;;;10.28;5.67;;;;;;;8.54;74.62;100413.46;1575208;91;21003;-76
2022/10/21 07:45:02;;;;;;;11.35;6.40;;;;;;;8.64;74.55;100415.88;1572741;89;22029;-70
2022/10/21 07:47:32;;;;;;;7.78;4.17;;;;;;;8.81;73.60;100399.87;1574116;91;21030;-77
2022/10/21 07:50:04;;;;;;;8.70;4.60;;;;;;;9.09;72.35;100400.52;1574360;91;21554;-78
2022/10/21 07:52:35;;;;;;;8.55;4.58;;;;;;;9.36;72.82;100395.89;1572857;90;21622;-74
2022/10/21 07:55:01;;;;;;;7.62;4.22;;;;;;;9.77;72.37;100396.90;1545506;92;21142;-74
2022/10/21 09:25:57;;;;;;;1.22;0.80;;;;;;;10.69;56.54;100382.87;1791605;79;27050;-71
2022/10/21 09:28:25;;;;;;;3.17;1.25;;;;;;;10.52;55.26;100378.70;1725482;82;20917;-71
2022/10/21 09:30:54;;;;;;;3.65;1.70;;;;;;;10.36;56.00;100386.91;1729794;82;20934;-70
2022/10/21 09:33:33;;;;;;;3.37;1.30;;;;;;;10.23;57.87;100373.90;1740807;81;20924;-70
2022/10/21 09:36:14;;;;;;;3.98;1.65;;;;;;;10.05;57.30;100369.95;1722307;81;21006;-72
2022/10/21 09:38:53;;;;;;;4.10;2.08;;;;;;;9.92;58.42;100369.28;1742235;80;20946;-77
2022/10/21 09:41:22;;;;;;;5.15;1.75;;;;;;;9.83;58.96;100371.03;1741313;81;20979;-77
2022/10/21 09:43:49;;;;;;;2.50;1.30;;;;;;;9.66;58.54;100370.69;1735245;81;21218;-77
2022/10/21 09:48:50;;;;;;;6.90;1.52;;;;;;;9.38;58.58;100370.39;1724994;82;20903;-78
2022/10/21 09:51:27;;;;;;;5.37;1.32;;;;;;;9.26;58.83;100365.28;1716636;80;20979;-76
2022/10/21 09:54:15;;;;;;;4.35;1.60;;;;;;;9.21;59.16;100363.17;1728285;82;21053;-77
2022/10/21 09:57:01;;;;;;;3.70;1.35;;;;;;;9.25;60.11;100358.17;1734261;81;21548;-77
2022/10/21 09:59:30;;;;;;;4.12;1.20;;;;;;;9.29;59.82;100357.05;1748977;80;20980;-77
2022/10/21 10:01:56;;;;;;;3.90;1.60;;;;;;;9.37;59.69;100357.80;1760863;80;20975;-76
2022/10/21 10:04:31;;;;;;;2.52;1.37;;;;;;;9.38;61.08;100351.77;1711173;81;21095;-76
2022/10/21 10:07:20;;;;;;;3.27;1.10;;;;;;;9.40;59.38;100350.92;1761342;80;21098;-76
2022/10/21 10:09:48;;;;;;;2.17;1.20;;;;;;;9.46;59.97;100352.51;1710527;81;21252;-77
2022/10/21 10:12:24;;;;;;;2.45;1.35;;;;;;;9.55;59.81;100350.78;1745816;80;21018;-76
2022/10/21 10:14:51;;;;;;;4.05;1.60;;;;;;;9.63;60.05;100349.33;1712141;82;21094;-75
2022/10/21 10:17:34;;;;;;;2.90;1.67;;;;;;;9.70;59.88;100342.41;1733378;80;21581;-76
2022/10/21 10:20:16;;;;;;;3.67;1.37;;;;;;;9.82;59.93;100342.78;1707765;82;21105;-76
2022/10/21 10:23:06;;;;;;;5.28;1.75;;;;;;;9.97;59.43;100330.01;1728308;82;21182;-75
2022/10/21 10:25:36;;;;;;;2.77;1.87;;;;;;;10.11;58.91;100329.56;1671212;85;21058;-76
2022/10/21 10:28:13;;;;;;;6.60;3.17;;;;;;;10.37;58.20;100321.86;1685713;83;21544;-76
2022/10/21 10:30:49;;;;;;;8.73;3.47;;;;;;;10.99;56.55;100312.35;1687929;83;21137;-75
2022/10/21 10:33:25;;;;;;;2.77;1.15;;;;;;;11.82;56.51;100307.28;1701167;83;21075;-76
2022/10/21 10:35:56;;;;;;;1.98;1.10;;;;;;;12.58;53.75;100312.27;1699216;83;22011;-76
2022/10/21 10:38:34;;;;;;;2.65;1.37;;;;;;;13.34;51.96;100303.49;1692938;83;21024;-76
2022/10/21 10:41:09;;;;;;;2.77;1.20;;;;;;;13.95;46.94;100304.00;1697367;83;20952;-75
2022/10/21 10:43:45;;;;;;;1.75;1.35;;;;;;;14.06;45.53;100296.24;1692019;83;21604;-77
2022/10/21 10:46:32;;;;;;;3.35;1.50;;;;;;;14.42;45.86;100288.55;1691397;83;21502;-76
2022/10/21 10:49:15;;;;;;;2.85;1.02;;;;;;;14.89;44.83;100283.74;1684906;83;21261;-76
2022/10/21 10:51:44;;;;;;;2.98;1.50;;;;;;;15.03;43.87;100280.20;1686536;83;21525;-75
2022/10/21 10:54:24;;;;;;;2.30;1.40;;;;;;;14.83;42.95;100280.33;1672101;84;21076;-74
2022/10/21 10:56:58;;;;;;;2.20;1.17;;;;;;;14.37;43.63;100272.11;1724600;82;20950;-75
2022/10/21 11:00:07;;;;;;;2.95;1.50;;;;;;;14.00;43.96;100275.44;1707598;82;21099;-74
2022/10/21 11:03:07;;;;;;;3.17;1.40;;;;;;;14.13;43.83;100273.12;1698887;83;21655;-76
2022/10/21 11:05:56;;;;;;;3.12;1.20;;;;;;;14.65;43.06;100267.66;1691260;83;20950;-71
2022/10/21 11:08:52;;;;;;;5.78;3.17;;;;;;;14.99;42.54;100262.67;1699063;83;21497;-70
2022/10/21 11:11:37;;;;;;;3.47;1.35;;;;;;;15.39;40.42;100252.14;1709943;83;20968;-71
2022/10/21 11:14:12;;;;;;;1.98;1.27;;;;;;;15.66;40.12;100254.48;1703089;83;21439;-70
2022/10/21 11:17:09;;;;;;;1.27;0.90;;;;;;;16.05;39.78;100261.62;1704989;83;22374;-74
2022/10/21 11:19:47;;;;;;;11.43;6.15;;;;;;;16.46;39.13;100262.79;1699109;83;21524;-75
2022/10/21 11:22:22;;;;;;;4.55;2.42;;;;;;;16.65;39.90;100258.19;1700652;83;20899;-77
2022/10/21 11:25:24;;;;;;;2.67;1.32;;;;;;;16.64;39.37;100255.15;1698856;83;21443;-79
2022/10/21 11:28:22;;;;;;;1.57;1.15;;;;;;;16.58;37.73;100250.96;1697664;83;20927;-77
2022/10/21 11:31:33;;;;;;;3.67;1.70;;;;;;;16.49;39.64;100246.87;1700570;84;21139;-76
2022/10/21 11:34:08;;;;;;;5.80;2.60;;;;;;;16.47;39.21;100240.28;1701796;83;20893;-79
2022/10/21 11:36:55;;;;;;;5.92;1.75;;;;;;;16.55;39.77;100249.67;1705836;83;21426;-79
2022/10/21 11:40:08;;;;;;;2.67;1.60;;;;;;;16.93;37.98;100247.31;1710085;83;20944;-78
2022/10/21 11:42:43;;;;;;;3.35;1.90;;;;;;;17.37;38.04;100247.06;1705287;83;20970;-77
2022/10/21 11:45:34;;;;;;;4.35;1.60;;;;;;;17.58;37.54;100233.09;1703487;83;21813;-79
2022/10/21 11:48:24;;;;;;;3.50;1.70;;;;;;;17.37;37.08;100231.80;1700995;83;20891;-78
2022/10/21 11:51:29;;;;;;;2.95;1.07;;;;;;;17.22;35.83;100225.55;1702363;83;20931;-79
2022/10/21 11:54:09;;;;;;;2.55;1.30;;;;;;;16.91;37.27;100230.20;1693779;83;21113;-77
2022/10/21 11:56:42;;;;;;;2.58;1.67;;;;;;;16.93;37.44;100219.00;1710066;83;20986;-78
2022/10/21 11:59:44;;;;;;;2.98;1.80;;;;;;;17.16;36.55;100224.39;1709425;83;21280;-77
2022/10/21 12:02:22;;;;;;;1.85;1.30;;;;;;;17.22;37.23;100214.45;1705493;83;20899;-77
2022/10/21 12:05:30;;;;;;;3.10;2.08;;;;;;;17.36;35.64;100219.89;1701726;83;21058;-78
2022/10/21 12:08:15;;;;;;;2.77;1.30;;;;;;;17.51;35.10;100201.75;1719528;83;21557;-78
2022/10/21 12:10:49;;;;;;;3.62;1.85;;;;;;;17.82;35.18;100194.27;1719737;83;21430;-77
2022/10/21 12:13:21;;;;;;;3.62;2.42;;;;;;;17.85;35.62;100206.06;1705648;83;21126;-78
2022/10/21 12:16:00;;;;;;;3.37;2.05;;;;;;;17.92;34.61;100200.70;1700511;83;21507;-78
2022/10/21 12:18:28;;;;;;;2.85;1.60;;;;;;;17.81;34.03;100195.42;1710627;83;20907;-77
2022/10/21 12:20:56;;;;;;;23.05;5.20;;;;;;;17.66;35.35;100201.67;1704196;83;20955;-77
2022/10/21 12:23:25;;;;;;;4.10;1.80;;;;;;;17.69;35.23;100196.23;1692038;83;21038;-78
2022/10/21 12:26:28;;;;;;;7.53;2.20;;;;;;;17.67;35.24;100191.61;1696640;83;21241;-75
2022/10/21 12:29:12;;;;;;;2.77;1.40;;;;;;;17.83;34.69;100190.91;1708640;83;20904;-79
2022/10/21 12:32:19;;;;;;;5.47;1.72;;;;;;;17.78;34.14;100188.59;1715737;83;21086;-77
2022/10/21 12:34:46;;;;;;;3.70;1.60;;;;;;;17.46;33.89;100190.30;1736552;81;21036;-75
2022/10/21 12:37:51;;;;;;;21.00;2.75;;;;;;;16.99;34.66;100201.57;1739951;81;21504;-73
2022/10/21 12:40:32;;;;;;;21.60;3.17;;;;;;;16.81;35.40;100196.77;1680708;84;21160;-79
2022/10/21 12:43:03;;;;;;;3.65;1.77;;;;;;;17.12;35.05;100194.32;1728070;82;20950;-78
2022/10/21 12:45:34;;;;;;;3.17;1.70;;;;;;;17.53;34.28;100194.46;1695961;82;21029;-81
2022/10/21 12:48:03;;;;;;;2.90;1.25;;;;;;;17.93;33.49;100201.52;1713837;82;20998;-80
2022/10/21 12:50:31;;;;;;;4.10;1.20;;;;;;;17.97;32.82;100202.44;1711944;82;21543;-81
2022/10/21 12:53:27;;;;;;;3.52;1.50;;;;;;;17.77;33.18;100205.02;1741466;81;21477;-80
2022/10/21 12:55:57;;;;;;;4.10;2.30;;;;;;;17.66;33.45;100202.48;1744200;81;21495;-78
2022/10/21 12:58:40;;;;;;;5.65;3.08;;;;;;;17.64;33.65;100201.98;1730149;81;21008;-79
2022/10/21 13:01:17;;;;;;;3.60;2.30;;;;;;;17.61;33.12;100201.88;1739561;82;21018;-78
2022/10/21 13:03:54;;;;;;;3.50;2.10;;;;;;;17.54;33.11;100194.70;1727114;82;21061;-76
2022/10/21 13:06:54;;;;;;;7.37;2.62;;;;;;;17.46;33.27;100178.38;1748919;82;21519;-76
2022/10/21 13:09:41;;;;;;;33.42;7.95;;;;;;;17.55;33.49;100184.63;1739226;81;20953;-77
2022/10/21 13:12:13;;;;;;;4.28;1.40;;;;;;;17.69;32.98;100178.77;1738128;82;21000;-77
2022/10/21 13:14:49;;;;;;;2.85;1.72;;;;;;;17.59;32.83;100182.78;1742638;82;20942;-77
2022/10/21 13:17:42;;;;;;;9.28;2.85;;;;;;;17.42;33.14;100172.72;1745243;82;20905;-77
2022/10/21 13:20:20;;;;;;;6.62;2.55;;;;;;;17.49;33.48;100172.14;1740842;81;21292;-77
2022/10/21 13:22:56;;;;;;;3.55;1.82;;;;;;;17.67;33.32;100165.81;1746572;81;21028;-77